Time;durP1;ratioP1;P1;durP2;ratioP2;P2;SDS_P1;SDS_P2;PMS_P1;PMS_P2;Temp;Humidity;BMP_temperature;BMP_pressure;BME280_temperature;BME280_humidity;BME280_pressure;Samples;Min_cycle;Max_cycle;Signal;HPM_P1;HPM_P2
2023/01/31 00:02:17;;;;;;;10.82;4.20;;;;;;;;;;5013826;28;20050;-59
2023/01/31 00:04:48;;;;;;;12.32;4.75;;;;;;;;;;4995590;28;20057;-60
2023/01/31 00:07:18;;;;;;;11.15;4.75;;;;;;;;;;4978580;28;20495;-60
2023/01/31 00:09:46;;;;;;;12.02;4.38;;;;;;;;;;4995734;28;20502;-60
2023/01/31 00:12:13;;;;;;;11.57;5.18;;;;;;;;;;4995212;28;20061;-59
2023/01/31 00:14:40;;;;;;;15.82;5.40;;;;;;;;;;5011264;28;20173;-59
2023/01/31 00:17:06;;;;;;;10.02;4.40;;;;;;;;;;5014837;28;20165;-56
2023/01/31 00:19:33;;;;;;;8.73;4.47;;;;;;;;;;5014848;28;20096;-57
2023/01/31 00:22:00;;;;;;;9.90;5.22;;;;;;;;;;5014455;28;20089;-59
2023/01/31 00:24:27;;;;;;;10.85;5.13;;;;;;;;;;5014765;28;20054;-50
2023/01/31 00:26:56;;;;;;;12.38;5.15;;;;;;;;;;5014132;28;20049;-53
2023/01/31 00:29:24;;;;;;;12.32;5.15;;;;;;;;;;5014791;28;20125;-53
2023/01/31 00:31:51;;;;;;;12.57;5.25;;;;;;;;;;5014667;28;20103;-58
2023/01/31 00:34:18;;;;;;;10.15;5.07;;;;;;;;;;5014494;28;20057;-56
2023/01/31 00:36:45;;;;;;;11.85;5.57;;;;;;;;;;5014610;28;20049;-50
2023/01/31 00:39:12;;;;;;;10.57;4.63;;;;;;;;;;5014265;28;20180;-54
2023/01/31 00:41:39;;;;;;;11.02;5.03;;;;;;;;;;5014320;28;20088;-54
2023/01/31 00:44:07;;;;;;;16.38;5.63;;;;;;;;;;5014195;28;20053;-54
2023/01/31 00:46:34;;;;;;;16.00;6.05;;;;;;;;;;5014723;28;20049;-55
2023/01/31 00:49:01;;;;;;;11.40;5.30;;;;;;;;;;5014062;28;20054;-52
2023/01/31 00:51:28;;;;;;;18.40;5.65;;;;;;;;;;4996504;28;20042;-54
2023/01/31 00:53:55;;;;;;;14.57;5.85;;;;;;;;;;5013985;28;20089;-51
2023/01/31 00:56:24;;;;;;;15.35;6.88;;;;;;;;;;5013890;28;20100;-54
2023/01/31 00:58:54;;;;;;;13.07;6.45;;;;;;;;;;5013946;28;20053;-50
2023/01/31 01:01:24;;;;;;;16.15;6.75;;;;;;;;;;5014307;28;20050;-55
2023/01/31 01:03:52;;;;;;;15.75;6.80;;;;;;;;;;5014128;28;20046;-54
2023/01/31 01:06:19;;;;;;;16.00;6.30;;;;;;;;;;4999354;28;20066;-50
2023/01/31 01:08:46;;;;;;;13.60;6.18;;;;;;;;;;4994141;28;20050;-54
2023/01/31 01:11:16;;;;;;;14.00;5.60;;;;;;;;;;4994027;28;20492;-55
2023/01/31 01:13:43;;;;;;;13.93;5.47;;;;;;;;;;4977058;28;20177;-51
2023/01/31 01:16:15;;;;;;;13.13;5.38;;;;;;;;;;4994157;28;20093;-60
2023/01/31 01:18:46;;;;;;;11.50;5.57;;;;;;;;;;4997745;28;20089;-63
2023/01/31 01:21:16;;;;;;;16.42;6.25;;;;;;;;;;5005047;28;20451;-61
2023/01/31 01:23:43;;;;;;;16.23;6.13;;;;;;;;;;5013652;28;20185;-61
2023/01/31 01:26:14;;;;;;;14.35;6.38;;;;;;;;;;5013541;28;20072;-61
2023/01/31 01:28:42;;;;;;;13.43;6.47;;;;;;;;;;5012774;28;20057;-64
2023/01/31 01:31:10;;;;;;;14.50;6.60;;;;;;;;;;4993914;28;20050;-59
2023/01/31 01:33:37;;;;;;;13.32;5.55;;;;;;;;;;4993753;28;20133;-62
2023/01/31 01:36:08;;;;;;;11.82;5.78;;;;;;;;;;4994136;28;20050;-61
2023/01/31 01:38:35;;;;;;;15.68;6.45;;;;;;;;;;4993825;28;20082;-61
2023/01/31 01:41:02;;;;;;;11.85;5.85;;;;;;;;;;4993471;28;20057;-57
2023/01/31 01:43:44;;;;;;;11.98;5.32;;;;;;;;;;4993784;28;20246;-61
2023/01/31 01:46:14;;;;;;;15.98;6.05;;;;;;;;;;4993763;28;20138;-60
2023/01/31 01:48:43;;;;;;;11.68;5.63;;;;;;;;;;4993470;28;20054;-60
2023/01/31 01:51:14;;;;;;;13.07;6.20;;;;;;;;;;4993544;28;20088;-60
2023/01/31 01:53:44;;;;;;;14.10;5.55;;;;;;;;;;4993546;28;20124;-61
2023/01/31 01:56:15;;;;;;;13.52;6.10;;;;;;;;;;4993461;28;20662;-62
2023/01/31 01:58:47;;;;;;;14.77;6.40;;;;;;;;;;4993436;28;20086;-62
2023/01/31 02:01:15;;;;;;;15.23;5.80;;;;;;;;;;4993720;28;20104;-62
2023/01/31 02:03:44;;;;;;;16.00;6.60;;;;;;;;;;4993436;28;20050;-62
2023/01/31 02:06:12;;;;;;;16.25;5.90;;;;;;;;;;4993294;28;20086;-60
2023/01/31 02:08:42;;;;;;;17.20;6.38;;;;;;;;;;4999155;28;20050;-62
2023/01/31 02:11:17;;;;;;;14.68;6.53;;;;;;;;;;4999863;28;20073;-61
2023/01/31 02:13:46;;;;;;;13.90;5.50;;;;;;;;;;5009209;28;20088;-61
2023/01/31 02:16:14;;;;;;;13.43;6.25;;;;;;;;;;5012774;28;20117;-60
2023/01/31 02:18:41;;;;;;;11.55;6.40;;;;;;;;;;5012660;28;20050;-61
2023/01/31 02:21:25;;;;;;;16.38;6.68;;;;;;;;;;5004252;28;20078;-63
2023/01/31 02:24:16;;;;;;;13.00;6.15;;;;;;;;;;4992785;28;20127;-60
2023/01/31 02:27:18;;;;;;;12.40;6.50;;;;;;;;;;4993087;28;20483;-61
2023/01/31 02:30:18;;;;;;;13.88;6.30;;;;;;;;;;4992889;28;20485;-61
2023/01/31 02:32:57;;;;;;;12.98;6.13;;;;;;;;;;4993199;28;20054;-61
2023/01/31 02:35:40;;;;;;;16.98;6.93;;;;;;;;;;4992846;28;20559;-60
2023/01/31 02:38:19;;;;;;;16.50;6.25;;;;;;;;;;4992688;28;20405;-60
2023/01/31 02:47:10;;;;;;;12.80;6.40;;;;;;;;;;4992663;28;20100;-61
2023/01/31 02:49:43;;;;;;;12.32;5.82;;;;;;;;;;4992066;28;20053;-61
2023/01/31 02:52:18;;;;;;;15.10;6.78;;;;;;;;;;4992330;28;20240;-61
2023/01/31 02:57:44;;;;;;;15.57;6.50;;;;;;;;;;4992771;28;20124;-61
2023/01/31 03:00:12;;;;;;;13.98;6.93;;;;;;;;;;4992439;28;20512;-61
2023/01/31 03:02:39;;;;;;;13.90;5.97;;;;;;;;;;4992636;28;20054;-62
2023/01/31 03:05:08;;;;;;;17.02;6.63;;;;;;;;;;4992274;28;20050;-60
2023/01/31 03:07:38;;;;;;;16.35;6.28;;;;;;;;;;4992362;28;20120;-60
2023/01/31 03:10:18;;;;;;;14.13;5.88;;;;;;;;;;4992186;28;20515;-60
2023/01/31 03:12:57;;;;;;;14.88;6.18;;;;;;;;;;4992175;28;20047;-61
2023/01/31 03:18:36;;;;;;;12.90;5.95;;;;;;;;;;4992243;28;20116;-61
2023/01/31 03:21:13;;;;;;;14.60;6.43;;;;;;;;;;4992126;28;20058;-61
2023/01/31 03:23:45;;;;;;;13.98;6.00;;;;;;;;;;4992255;28;20051;-62
2023/01/31 03:26:12;;;;;;;14.52;5.68;;;;;;;;;;4992270;28;20124;-62
2023/01/31 03:28:42;;;;;;;10.63;5.30;;;;;;;;;;4992005;28;20089;-60
2023/01/31 03:31:16;;;;;;;11.60;5.88;;;;;;;;;;4992099;28;20046;-62
2023/01/31 03:33:47;;;;;;;12.60;6.05;;;;;;;;;;4992083;28;20047;-62
2023/01/31 03:36:26;;;;;;;16.30;6.78;;;;;;;;;;4992172;28;20117;-62
2023/01/31 03:39:04;;;;;;;14.90;6.03;;;;;;;;;;5000121;28;20078;-62
2023/01/31 03:41:38;;;;;;;15.00;6.47;;;;;;;;;;4973041;28;20560;-61
2023/01/31 03:44:10;;;;;;;13.60;6.88;;;;;;;;;;4972743;28;20054;-61
2023/01/31 03:46:41;;;;;;;12.70;5.57;;;;;;;;;;4972880;28;20051;-61
2023/01/31 03:49:11;;;;;;;12.70;6.07;;;;;;;;;;4972604;28;20069;-61
2023/01/31 03:51:45;;;;;;;14.13;6.57;;;;;;;;;;5009480;28;20054;-61
2023/01/31 03:54:16;;;;;;;12.75;5.82;;;;;;;;;;5011771;28;20145;-60
2023/01/31 03:56:46;;;;;;;12.75;5.75;;;;;;;;;;5011694;28;20467;-60
2023/01/31 03:59:17;;;;;;;14.13;6.32;;;;;;;;;;5001021;28;20046;-62
2023/01/31 04:01:48;;;;;;;12.25;5.38;;;;;;;;;;4994294;28;20108;-61
2023/01/31 04:04:19;;;;;;;12.13;6.18;;;;;;;;;;4995430;28;20046;-61
2023/01/31 04:06:47;;;;;;;16.55;6.45;;;;;;;;;;4995273;28;20458;-61
2023/01/31 04:09:14;;;;;;;12.75;5.95;;;;;;;;;;4995639;28;20576;-62
2023/01/31 04:11:42;;;;;;;13.15;6.00;;;;;;;;;;4994945;28;20050;-62
2023/01/31 04:14:10;;;;;;;12.73;6.60;;;;;;;;;;4995680;28;20054;-63
2023/01/31 04:16:37;;;;;;;11.88;5.93;;;;;;;;;;4995270;28;20459;-61
2023/01/31 04:19:04;;;;;;;13.35;6.68;;;;;;;;;;4995577;28;20405;-62
2023/01/31 04:21:31;;;;;;;14.57;6.03;;;;;;;;;;5013027;28;20569;-60
2023/01/31 04:23:59;;;;;;;16.23;6.95;;;;;;;;;;5014581;28;20119;-61
2023/01/31 04:26:26;;;;;;;15.23;6.18;;;;;;;;;;5014506;28;20046;-61
2023/01/31 04:28:53;;;;;;;12.70;6.00;;;;;;;;;;5013961;28;20104;-59
2023/01/31 04:31:19;;;;;;;13.68;6.85;;;;;;;;;;4975283;28;20082;-61
2023/01/31 04:33:46;;;;;;;16.30;6.95;;;;;;;;;;4975451;28;20058;-58
2023/01/31 04:36:13;;;;;;;12.90;5.50;;;;;;;;;;4975357;28;20054;-61
2023/01/31 04:38:40;;;;;;;14.38;6.05;;;;;;;;;;4983624;28;20054;-60
2023/01/31 04:41:08;;;;;;;14.43;6.63;;;;;;;;;;4994528;28;20490;-59
2023/01/31 04:43:35;;;;;;;11.73;6.07;;;;;;;;;;4994482;28;20046;-60
2023/01/31 04:46:01;;;;;;;12.15;5.75;;;;;;;;;;4994345;28;20113;-60
2023/01/31 04:48:29;;;;;;;14.35;5.97;;;;;;;;;;4994760;28;20554;-58
2023/01/31 04:50:55;;;;;;;14.18;6.65;;;;;;;;;;4997072;28;20054;-60
2023/01/31 04:53:22;;;;;;;14.48;5.88;;;;;;;;;;5013977;28;20107;-60
2023/01/31 04:55:49;;;;;;;14.38;6.05;;;;;;;;;;5014067;28;20104;-58
2023/01/31 04:58:17;;;;;;;12.45;6.35;;;;;;;;;;5013822;28;20049;-58
2023/01/31 05:00:44;;;;;;;12.68;6.18;;;;;;;;;;5008373;28;20105;-59
2023/01/31 05:03:11;;;;;;;13.07;6.50;;;;;;;;;;4994241;28;20073;-59
2023/01/31 05:05:38;;;;;;;14.57;5.90;;;;;;;;;;4994474;28;20484;-60
2023/01/31 05:08:05;;;;;;;16.08;7.07;;;;;;;;;;4994434;28;20085;-59
2023/01/31 05:10:34;;;;;;;15.05;5.75;;;;;;;;;;4994144;28;20097;-59
2023/01/31 05:13:01;;;;;;;13.65;6.35;;;;;;;;;;5012231;28;20053;-60
2023/01/31 05:15:29;;;;;;;14.82;6.80;;;;;;;;;;5013523;28;20049;-57
2023/01/31 05:18:01;;;;;;;14.50;5.80;;;;;;;;;;5013464;28;20050;-59
2023/01/31 05:20:29;;;;;;;13.35;5.95;;;;;;;;;;5013514;28;20514;-59
2023/01/31 05:22:57;;;;;;;14.23;6.18;;;;;;;;;;5005003;28;20054;-59
2023/01/31 05:25:24;;;;;;;14.02;6.13;;;;;;;;;;5013224;28;20057;-60
2023/01/31 05:27:51;;;;;;;14.07;6.30;;;;;;;;;;5013373;28;20129;-59
2023/01/31 05:30:18;;;;;;;17.65;6.35;;;;;;;;;;5013138;28;20045;-60
2023/01/31 05:32:48;;;;;;;12.63;6.07;;;;;;;;;;5010788;28;20046;-60
2023/01/31 05:35:15;;;;;;;11.82;5.38;;;;;;;;;;5013331;28;20454;-60
2023/01/31 05:37:43;;;;;;;14.60;5.53;;;;;;;;;;5013045;28;20054;-58
2023/01/31 05:40:13;;;;;;;15.63;5.82;;;;;;;;;;4994885;28;20054;-59
2023/01/31 05:42:40;;;;;;;13.32;5.70;;;;;;;;;;5000620;28;20136;-59
2023/01/31 05:45:09;;;;;;;16.25;6.90;;;;;;;;;;4994155;28;20053;-59
2023/01/31 05:47:35;;;;;;;12.65;6.03;;;;;;;;;;4993377;28;20050;-59
2023/01/31 05:50:04;;;;;;;14.95;6.30;;;;;;;;;;4993457;28;20504;-58
2023/01/31 05:52:31;;;;;;;13.32;5.35;;;;;;;;;;4994787;28;20105;-60
2023/01/31 05:54:58;;;;;;;15.65;6.07;;;;;;;;;;4998468;28;20128;-59
2023/01/31 05:57:25;;;;;;;15.38;5.63;;;;;;;;;;4992828;28;20054;-57
2023/01/31 05:59:52;;;;;;;14.27;6.03;;;;;;;;;;4993143;28;20058;-58
2023/01/31 06:02:18;;;;;;;18.77;5.82;;;;;;;;;;4992970;28;20401;-58
2023/01/31 06:04:46;;;;;;;15.70;5.63;;;;;;;;;;5000563;28;20546;-59
2023/01/31 06:07:14;;;;;;;12.20;5.43;;;;;;;;;;4992964;28;20092;-59
2023/01/31 06:09:41;;;;;;;13.38;5.20;;;;;;;;;;5003749;28;20054;-58
2023/01/31 06:12:12;;;;;;;12.23;4.85;;;;;;;;;;5012272;28;20097;-60
2023/01/31 06:14:39;;;;;;;12.63;5.40;;;;;;;;;;5004125;28;20092;-59
2023/01/31 06:17:06;;;;;;;16.98;6.32;;;;;;;;;;5012464;28;20050;-56
2023/01/31 06:19:32;;;;;;;11.45;5.47;;;;;;;;;;5012225;28;20096;-58
2023/01/31 06:21:59;;;;;;;13.27;5.65;;;;;;;;;;5011578;28;20494;-59
2023/01/31 06:24:27;;;;;;;12.70;5.97;;;;;;;;;;4999411;28;20054;-59
2023/01/31 06:26:54;;;;;;;10.40;5.10;;;;;;;;;;4992756;28;20061;-59
2023/01/31 06:29:21;;;;;;;12.18;5.32;;;;;;;;;;4992752;28;20046;-60
2023/01/31 06:31:48;;;;;;;10.35;5.15;;;;;;;;;;5002156;28;20050;-58
2023/01/31 06:34:15;;;;;;;16.73;5.10;;;;;;;;;;5009609;28;20054;-58
2023/01/31 06:36:41;;;;;;;15.13;5.80;;;;;;;;;;5006485;28;20523;-59
2023/01/31 06:39:10;;;;;;;14.73;5.72;;;;;;;;;;5007882;28;20050;-59
2023/01/31 06:41:38;;;;;;;12.80;5.65;;;;;;;;;;5011769;28;20057;-58
2023/01/31 06:44:05;;;;;;;14.55;5.07;;;;;;;;;;5012203;28;20053;-60
2023/01/31 06:46:32;;;;;;;10.80;5.28;;;;;;;;;;5003704;28;20136;-58
2023/01/31 06:48:58;;;;;;;12.07;5.32;;;;;;;;;;5011983;28;20054;-60
2023/01/31 06:51:25;;;;;;;15.55;5.72;;;;;;;;;;5011840;28;20054;-58
2023/01/31 06:53:52;;;;;;;10.48;5.00;;;;;;;;;;5009590;28;20112;-60
2023/01/31 06:56:19;;;;;;;11.65;5.30;;;;;;;;;;4993732;28;20060;-59
2023/01/31 06:58:47;;;;;;;14.38;5.03;;;;;;;;;;5012029;28;20053;-60
2023/01/31 07:01:15;;;;;;;13.85;5.82;;;;;;;;;;5011727;28;20049;-60
2023/01/31 07:03:42;;;;;;;14.98;5.57;;;;;;;;;;5011639;28;20462;-60
2023/01/31 07:06:10;;;;;;;14.45;5.60;;;;;;;;;;5005809;28;20050;-59
2023/01/31 07:08:37;;;;;;;14.43;6.07;;;;;;;;;;4992590;28;20085;-59
2023/01/31 07:11:04;;;;;;;14.25;5.13;;;;;;;;;;4992195;28;20054;-59
2023/01/31 07:13:31;;;;;;;12.23;5.70;;;;;;;;;;4991998;28;20058;-60
2023/01/31 07:15:59;;;;;;;13.90;5.47;;;;;;;;;;4992074;28;20050;-59
2023/01/31 07:18:26;;;;;;;15.93;5.90;;;;;;;;;;5014903;22;20038;-74
2023/01/31 07:20:53;;;;;;;14.30;6.05;;;;;;;;;;4993772;28;20050;-74
2023/01/31 07:23:20;;;;;;;16.23;5.47;;;;;;;;;;4993490;28;20539;-75
2023/01/31 07:25:46;;;;;;;15.70;5.47;;;;;;;;;;4993062;28;20477;-75
2023/01/31 07:28:13;;;;;;;14.50;5.32;;;;;;;;;;4992751;28;20042;-73
2023/01/31 07:30:42;;;;;;;13.80;6.13;;;;;;;;;;4988176;28;20038;-74
2023/01/31 07:33:10;;;;;;;14.00;6.10;;;;;;;;;;4974259;28;20051;-75
2023/01/31 07:35:37;;;;;;;13.73;5.70;;;;;;;;;;4976671;28;20125;-74
2023/01/31 07:38:03;;;;;;;11.80;5.25;;;;;;;;;;4985042;28;20053;-75
2023/01/31 07:40:34;;;;;;;15.32;5.53;;;;;;;;;;4997167;28;20137;-72
2023/01/31 07:43:00;;;;;;;12.95;5.78;;;;;;;;;;4998566;28;20394;-74
2023/01/31 07:45:27;;;;;;;11.88;4.63;;;;;;;;;;4997009;28;20484;-74
2023/01/31 07:47:57;;;;;;;14.60;5.72;;;;;;;;;;4998067;28;20042;-74
2023/01/31 07:50:26;;;;;;;13.45;5.15;;;;;;;;;;4997608;28;20520;-74
2023/01/31 07:52:58;;;;;;;13.75;5.90;;;;;;;;;;4996411;28;20051;-74
2023/01/31 07:55:25;;;;;;;13.65;5.70;;;;;;;;;;4997184;28;20145;-75
2023/01/31 07:57:51;;;;;;;13.68;5.20;;;;;;;;;;4996847;28;20053;-74
2023/01/31 08:05:49;;;;;;;13.95;5.93;;;;;;;;;;4987168;28;20072;-76
2023/01/31 08:08:15;;;;;;;13.00;4.80;;;;;;;;;;4980596;28;20042;-76
2023/01/31 08:10:42;;;;;;;13.88;5.55;;;;;;;;;;4996578;28;20129;-75
2023/01/31 08:13:10;;;;;;;14.27;5.30;;;;;;;;;;4992354;28;20047;-75
2023/01/31 08:15:37;;;;;;;14.57;5.30;;;;;;;;;;4991021;28;20050;-76
2023/01/31 08:18:04;;;;;;;11.65;5.50;;;;;;;;;;5004532;28;20133;-76
2023/01/31 08:20:30;;;;;;;10.95;5.15;;;;;;;;;;5015904;28;20054;-76
2023/01/31 08:22:59;;;;;;;12.18;5.10;;;;;;;;;;5016179;28;20523;-76
2023/01/31 08:25:29;;;;;;;16.08;5.88;;;;;;;;;;4999561;28;21403;-76
2023/01/31 08:27:57;;;;;;;17.20;5.30;;;;;;;;;;4994615;28;20050;-76
2023/01/31 08:30:24;;;;;;;16.52;5.50;;;;;;;;;;4995119;28;20054;-75
2023/01/31 08:32:50;;;;;;;10.98;5.45;;;;;;;;;;4993052;28;20050;-76
2023/01/31 08:35:17;;;;;;;15.50;4.70;;;;;;;;;;4993367;28;20038;-75
2023/01/31 08:37:44;;;;;;;14.65;5.00;;;;;;;;;;4994386;28;20152;-76
2023/01/31 08:40:12;;;;;;;11.82;5.32;;;;;;;;;;4991941;28;20125;-75
2023/01/31 08:42:40;;;;;;;13.57;5.20;;;;;;;;;;4974467;28;20082;-75
2023/01/31 08:45:10;;;;;;;13.23;5.13;;;;;;;;;;4975184;28;20051;-75
2023/01/31 08:47:37;;;;;;;10.00;4.63;;;;;;;;;;4974164;28;20110;-74
2023/01/31 08:50:06;;;;;;;13.25;4.60;;;;;;;;;;4979275;28;20625;-76
2023/01/31 08:52:34;;;;;;;14.25;5.18;;;;;;;;;;4989840;28;20133;-74
2023/01/31 08:55:01;;;;;;;12.73;4.80;;;;;;;;;;4992894;28;20133;-76
2023/01/31 08:57:29;;;;;;;14.68;4.63;;;;;;;;;;4976597;28;20055;-75
2023/01/31 08:59:56;;;;;;;12.63;4.72;;;;;;;;;;4975874;28;20134;-75
2023/01/31 09:02:23;;;;;;;11.18;4.88;;;;;;;;;;4992656;28;20086;-76
2023/01/31 09:04:49;;;;;;;10.50;4.50;;;;;;;;;;4999943;28;20073;-76
2023/01/31 09:07:20;;;;;;;11.15;4.75;;;;;;;;;;5004217;28;20038;-75
2023/01/31 09:09:47;;;;;;;14.52;4.30;;;;;;;;;;5003558;28;20042;-76
2023/01/31 09:12:14;;;;;;;10.73;4.47;;;;;;;;;;5001927;28;20042;-75
2023/01/31 09:14:42;;;;;;;15.40;4.90;;;;;;;;;;5002674;28;20600;-76
2023/01/31 09:17:09;;;;;;;9.20;4.38;;;;;;;;;;5002242;28;20110;-74
2023/01/31 09:19:36;;;;;;;16.52;5.45;;;;;;;;;;5004023;28;20134;-74
2023/01/31 09:22:03;;;;;;;10.93;4.10;;;;;;;;;;5002597;28;20046;-77
2023/01/31 09:24:30;;;;;;;18.67;4.78;;;;;;;;;;4996106;28;20117;-74
2023/01/31 09:26:56;;;;;;;12.52;4.70;;;;;;;;;;5001773;28;20129;-76
2023/01/31 09:29:23;;;;;;;12.63;4.55;;;;;;;;;;5000555;28;20049;-74
2023/01/31 09:31:52;;;;;;;13.55;4.75;;;;;;;;;;5001301;28;20046;-76
2023/01/31 09:34:19;;;;;;;11.68;4.10;;;;;;;;;;5002323;28;20613;-79
2023/01/31 09:36:45;;;;;;;11.38;4.28;;;;;;;;;;4999876;28;20061;-76
2023/01/31 09:39:12;;;;;;;12.98;4.00;;;;;;;;;;5004230;28;20109;-77
2023/01/31 09:41:45;;;;;;;12.35;4.00;;;;;;;;;;4999034;28;20046;-75
2023/01/31 09:44:16;;;;;;;12.40;4.90;;;;;;;;;;5003079;28;20054;-80
2023/01/31 09:46:49;;;;;;;13.85;4.05;;;;;;;;;;4997505;28;20046;-76
2023/01/31 09:49:22;;;;;;;11.30;4.15;;;;;;;;;;4993983;28;20074;-77
2023/01/31 09:51:54;;;;;;;12.27;4.18;;;;;;;;;;5000311;28;20050;-76
2023/01/31 09:54:29;;;;;;;10.57;4.40;;;;;;;;;;4997438;28;20046;-77
2023/01/31 09:57:13;;;;;;;13.25;4.38;;;;;;;;;;4976461;28;20058;-77
2023/01/31 09:59:48;;;;;;;15.80;5.03;;;;;;;;;;4984893;28;20125;-73
2023/01/31 10:02:44;;;;;;;11.40;3.90;;;;;;;;;;4990022;28;20169;-73
2023/01/31 10:05:21;;;;;;;8.50;3.85;;;;;;;;;;4984150;28;20047;-75
2023/01/31 10:07:59;;;;;;;12.25;4.20;;;;;;;;;;4992886;28;20129;-72
2023/01/31 10:10:36;;;;;;;11.68;3.75;;;;;;;;;;4973122;28;20129;-74
2023/01/31 10:13:06;;;;;;;13.05;3.50;;;;;;;;;;4972824;28;20050;-72
2023/01/31 10:15:38;;;;;;;11.38;3.42;;;;;;;;;;4973080;28;20051;-73
2023/01/31 10:18:11;;;;;;;11.75;3.70;;;;;;;;;;4973633;28;20078;-72
2023/01/31 10:20:44;;;;;;;11.75;4.68;;;;;;;;;;4977161;28;20121;-72
2023/01/31 10:23:15;;;;;;;11.23;3.65;;;;;;;;;;4992091;28;20089;-73
2023/01/31 10:25:48;;;;;;;12.25;4.63;;;;;;;;;;4993878;28;20054;-72
2023/01/31 10:28:20;;;;;;;12.38;3.83;;;;;;;;;;4992389;28;20046;-72
2023/01/31 10:30:56;;;;;;;13.32;4.45;;;;;;;;;;4991844;28;20046;-72
2023/01/31 10:33:27;;;;;;;17.60;4.15;;;;;;;;;;4991935;28;20039;-72
2023/01/31 10:35:58;;;;;;;7.63;3.47;;;;;;;;;;4991839;28;20073;-73
2023/01/31 10:38:30;;;;;;;10.38;4.00;;;;;;;;;;4991056;28;20121;-72
2023/01/31 10:41:01;;;;;;;9.60;3.60;;;;;;;;;;4988371;28;20461;-72
2023/01/31 10:43:36;;;;;;;12.68;4.13;;;;;;;;;;4988806;28;20074;-73
2023/01/31 10:46:10;;;;;;;11.35;3.28;;;;;;;;;;4990328;28;20133;-72
2023/01/31 10:48:37;;;;;;;11.25;4.65;;;;;;;;;;4991974;28;20046;-72
2023/01/31 10:51:13;;;;;;;14.80;3.70;;;;;;;;;;4992518;28;20602;-72
2023/01/31 10:53:54;;;;;;;8.23;3.33;;;;;;;;;;4986273;28;20038;-71
2023/01/31 10:56:23;;;;;;;;;;;;;;;;;;4982458;28;20125;-72
2023/01/31 10:58:52;;;;;;;14.25;4.70;;;;;;;;;;4992644;28;20324;-72
2023/01/31 11:01:19;;;;;;;10.38;4.68;;;;;;;;;;4991171;28;20050;-72
2023/01/31 11:03:49;;;;;;;11.45;3.83;;;;;;;;;;4986600;28;20043;-73
2023/01/31 11:06:17;;;;;;;11.10;3.97;;;;;;;;;;4985326;28;20124;-73
2023/01/31 11:08:47;;;;;;;9.07;3.42;;;;;;;;;;4987056;28;20540;-73
2023/01/31 11:11:16;;;;;;;9.87;3.67;;;;;;;;;;4993680;28;20133;-73
2023/01/31 11:13:56;;;;;;;9.27;2.92;;;;;;;;;;4994856;28;20731;-73
2023/01/31 11:16:24;;;;;;;8.13;4.43;;;;;;;;;;4995150;28;20129;-73
2023/01/31 11:18:52;;;;;;;13.05;4.00;;;;;;;;;;4994726;28;20589;-73
2023/01/31 11:21:23;;;;;;;9.43;3.50;;;;;;;;;;4994906;28;20125;-74
2023/01/31 11:23:51;;;;;;;12.65;3.90;;;;;;;;;;4994799;28;20081;-72
2023/01/31 11:26:27;;;;;;;11.00;3.60;;;;;;;;;;4993674;28;20058;-73
2023/01/31 11:28:54;;;;;;;8.50;3.33;;;;;;;;;;4992623;28;20081;-71
2023/01/31 11:31:27;;;;;;;11.23;4.30;;;;;;;;;;4992129;28;20449;-74
2023/01/31 11:33:59;;;;;;;10.98;4.00;;;;;;;;;;4991120;28;20146;-73
2023/01/31 11:36:32;;;;;;;16.67;4.55;;;;;;;;;;4992079;28;20069;-72
2023/01/31 11:38:59;;;;;;;14.07;3.78;;;;;;;;;;4992380;28;20045;-73
2023/01/31 11:41:32;;;;;;;13.90;4.10;;;;;;;;;;4992056;28;20042;-73
2023/01/31 11:44:15;;;;;;;11.77;3.97;;;;;;;;;;4992295;28;20082;-74
2023/01/31 11:46:46;;;;;;;9.52;3.90;;;;;;;;;;4991025;28;20046;-74
2023/01/31 11:49:19;;;;;;;11.60;4.53;;;;;;;;;;4992244;28;20143;-73
2023/01/31 11:51:48;;;;;;;16.02;4.57;;;;;;;;;;4991422;28;20142;-75
2023/01/31 11:54:21;;;;;;;12.65;4.18;;;;;;;;;;4990462;28;20521;-74
2023/01/31 11:56:48;;;;;;;9.20;4.50;;;;;;;;;;4990947;28;20052;-73
2023/01/31 11:59:19;;;;;;;12.93;5.00;;;;;;;;;;4991071;28;20113;-73
2023/01/31 12:01:49;;;;;;;12.85;5.05;;;;;;;;;;4989952;28;20521;-72
2023/01/31 12:04:20;;;;;;;9.52;4.80;;;;;;;;;;4990350;28;20050;-73
2023/01/31 12:06:58;;;;;;;;;;;;;;;;;;4990728;28;20039;-74
2023/01/31 12:09:27;;;;;;;13.85;4.50;;;;;;;;;;4990186;28;20016;-72
2023/01/31 12:11:55;;;;;;;18.20;5.80;;;;;;;;;;4988922;28;20137;-76
2023/01/31 12:14:23;;;;;;;13.27;5.40;;;;;;;;;;4990910;28;20046;-75
2023/01/31 12:16:55;;;;;;;13.10;6.20;;;;;;;;;;4990136;28;20142;-76
2023/01/31 12:19:36;;;;;;;13.25;5.30;;;;;;;;;;4990406;28;20050;-76
2023/01/31 12:22:10;;;;;;;10.68;4.97;;;;;;;;;;4989423;28;20073;-76
2023/01/31 12:24:45;;;;;;;13.30;5.22;;;;;;;;;;4991526;28;20139;-76
2023/01/31 12:27:27;;;;;;;9.93;5.00;;;;;;;;;;4993948;28;20070;-76
2023/01/31 12:30:14;;;;;;;10.23;4.63;;;;;;;;;;4975559;28;20043;-76
2023/01/31 12:32:54;;;;;;;11.48;4.68;;;;;;;;;;4986887;28;20129;-75
2023/01/31 12:35:35;;;;;;;13.03;5.03;;;;;;;;;;4993658;28;20043;-75
2023/01/31 12:38:17;;;;;;;14.23;6.68;;;;;;;;;;4993103;28;20066;-75
2023/01/31 12:40:49;;;;;;;11.48;5.10;;;;;;;;;;4993375;28;20043;-74
2023/01/31 12:43:29;;;;;;;14.43;5.88;;;;;;;;;;4993577;28;20046;-75
2023/01/31 12:46:08;;;;;;;12.17;5.23;;;;;;;;;;4991501;28;20042;-75
2023/01/31 12:49:08;;;;;;;13.35;5.43;;;;;;;;;;4988235;28;20382;-75
2023/01/31 12:51:43;;;;;;;9.50;4.93;;;;;;;;;;4991253;28;20129;-77
2023/01/31 12:54:22;;;;;;;13.88;5.80;;;;;;;;;;4978015;28;20331;-76
2023/01/31 12:56:59;;;;;;;14.15;5.78;;;;;;;;;;4973269;28;20046;-75
2023/01/31 12:59:39;;;;;;;12.10;6.05;;;;;;;;;;4973410;28;20134;-75
2023/01/31 13:02:18;;;;;;;13.65;5.88;;;;;;;;;;4973045;28;20156;-75
2023/01/31 13:04:48;;;;;;;14.77;6.05;;;;;;;;;;4974654;28;20055;-75
2023/01/31 13:07:23;;;;;;;11.93;5.80;;;;;;;;;;4993006;28;20113;-76
2023/01/31 13:09:54;;;;;;;12.80;5.72;;;;;;;;;;4992735;28;20055;-74
2023/01/31 13:12:24;;;;;;;12.55;5.97;;;;;;;;;;4992939;28;20140;-74
2023/01/31 13:15:02;;;;;;;11.45;5.65;;;;;;;;;;4993123;28;20093;-75
2023/01/31 13:17:30;;;;;;;13.15;6.50;;;;;;;;;;4992595;28;20449;-74
2023/01/31 13:20:00;;;;;;;15.55;5.97;;;;;;;;;;4993357;28;20421;-75
2023/01/31 13:22:29;;;;;;;14.55;6.03;;;;;;;;;;4992566;28;20084;-75
2023/01/31 13:25:08;;;;;;;15.65;6.05;;;;;;;;;;4993353;28;20054;-76
2023/01/31 13:27:39;;;;;;;12.07;5.63;;;;;;;;;;4992833;28;20145;-74
2023/01/31 13:30:17;;;;;;;11.98;5.85;;;;;;;;;;4993113;28;20137;-75
2023/01/31 13:32:48;;;;;;;13.25;6.97;;;;;;;;;;4992423;28;20057;-75
2023/01/31 13:35:21;;;;;;;13.23;6.40;;;;;;;;;;4992447;28;20464;-75
2023/01/31 13:37:53;;;;;;;13.85;7.10;;;;;;;;;;4992246;28;20042;-75
2023/01/31 13:40:23;;;;;;;14.95;5.72;;;;;;;;;;4992435;28;20122;-75
2023/01/31 13:42:52;;;;;;;12.32;6.05;;;;;;;;;;4991818;28;20057;-74
2023/01/31 13:45:24;;;;;;;14.43;6.60;;;;;;;;;;4991641;28;20153;-75
2023/01/31 13:47:54;;;;;;;13.20;6.10;;;;;;;;;;4991610;28;20046;-75
2023/01/31 13:50:33;;;;;;;12.75;6.15;;;;;;;;;;4992471;28;20054;-75
2023/01/31 13:53:02;;;;;;;14.50;6.15;;;;;;;;;;4992610;28;20046;-78
2023/01/31 13:55:36;;;;;;;13.68;5.88;;;;;;;;;;4993016;28;20501;-75
2023/01/31 13:58:06;;;;;;;13.80;6.50;;;;;;;;;;4991906;28;20058;-74
2023/01/31 14:00:41;;;;;;;15.07;6.93;;;;;;;;;;4992654;28;20128;-75
2023/01/31 14:03:10;;;;;;;15.70;6.05;;;;;;;;;;4992667;28;20390;-75
2023/01/31 14:05:58;;;;;;;17.63;6.43;;;;;;;;;;4992079;28;20082;-74
2023/01/31 14:08:38;;;;;;;13.18;6.47;;;;;;;;;;4991654;28;20125;-75
2023/01/31 14:11:33;;;;;;;14.43;6.35;;;;;;;;;;4992178;28;20062;-75
2023/01/31 14:14:19;;;;;;;14.95;6.78;;;;;;;;;;4991693;28;20603;-74
2023/01/31 14:16:46;;;;;;;12.45;5.97;;;;;;;;;;4991336;28;20053;-73
2023/01/31 14:20:01;;;;;;;13.35;5.93;;;;;;;;;;4991711;28;20046;-75
2023/01/31 14:22:33;;;;;;;14.02;5.78;;;;;;;;;;4991823;28;20457;-76
2023/01/31 14:25:01;;;;;;;15.48;7.35;;;;;;;;;;4992665;28;20051;-79
2023/01/31 14:27:32;;;;;;;14.52;6.50;;;;;;;;;;4993211;28;20133;-74
2023/01/31 14:30:09;;;;;;;15.60;5.90;;;;;;;;;;4991155;28;20042;-76
2023/01/31 14:32:39;;;;;;;13.43;6.05;;;;;;;;;;4991842;28;20129;-77
2023/01/31 14:35:24;;;;;;;11.40;5.43;;;;;;;;;;4987442;28;20098;-75
2023/01/31 14:37:58;;;;;;;12.57;6.20;;;;;;;;;;4991082;28;20054;-76
2023/01/31 14:40:28;;;;;;;15.75;6.45;;;;;;;;;;4982167;28;20106;-77
2023/01/31 14:43:20;;;;;;;11.43;5.75;;;;;;;;;;4988866;28;20133;-74
2023/01/31 14:46:13;;;;;;;12.40;6.07;;;;;;;;;;4990514;28;20422;-74
2023/01/31 14:49:02;;;;;;;11.32;5.50;;;;;;;;;;4995392;28;20042;-77
2023/01/31 14:51:43;;;;;;;14.13;6.43;;;;;;;;;;4993704;28;20129;-76
2023/01/31 14:54:22;;;;;;;13.30;6.05;;;;;;;;;;4976450;28;20071;-79
2023/01/31 14:56:54;;;;;;;15.80;5.32;;;;;;;;;;4985494;28;20114;-75
2023/01/31 14:59:31;;;;;;;13.50;6.45;;;;;;;;;;4986943;28;20445;-74
2023/01/31 15:01:58;;;;;;;14.40;5.95;;;;;;;;;;4987843;28;20563;-76
2023/01/31 15:04:27;;;;;;;17.50;6.40;;;;;;;;;;4989178;28;20449;-72
2023/01/31 15:06:56;;;;;;;14.38;5.75;;;;;;;;;;4988345;28;20576;-76
2023/01/31 15:09:38;;;;;;;12.05;6.35;;;;;;;;;;4988090;28;20505;-75
2023/01/31 15:12:25;;;;;;;14.70;6.65;;;;;;;;;;4990409;28;20130;-74